| Date | Time | Temp. (oF) | Dew Point (oF) | Rel. Hum. (%) | Press. (in.) | Wind Dir. | Wind Speed (mph) | Hourly Rainfall (in.) |
|
|---|---|---|---|---|---|---|---|---|---|
| 1 | 03/01 | 00:00 | 36 | 29 | 76 | 30.05 | SE | 6 | 0.00 |
| 2 | 02/29 | 23:00 | 35 | 28 | 76 | 30.09 | S | 6 | 0.00 |
| 3 | 02/29 | 22:00 | 34 | 27 | 77 | 30.14 | S | 3 | 0.00 |
| 4 | 02/29 | 21:00 | 33 | 26 | 77 | 30.18 | SE | 1 | 0.00 |
| 5 | 02/29 | 20:00 | 33 | 25 | 74 | 30.22 | E | 4 | 0.00 |
| 6 | 02/29 | 19:00 | 32 | 23 | 72 | 30.24 | SSE | 3 | 0.00 |
| 7 | 02/29 | 18:00 | 32 | 22 | 68 | 30.24 | SSE | 7 | 0.00 |
| 8 | 02/29 | 17:00 | 35 | 19 | 54 | 30.25 | ESE | 9 | 0.00 |
| 9 | 02/29 | 16:00 | 34 | 17 | 51 | 30.28 | S | 9 | 0.00 |
| 10 | 02/29 | 15:00 | 34 | 16 | 48 | 30.30 | SSW | 8 | 0.00 |
| 11 | 02/29 | 14:00 | 34 | 14 | 45 | 30.35 | S | 9 | 0.00 |
| 12 | 02/29 | 13:00 | 33 | 13 | 45 | 30.40 | SSW | 7 | 0.00 |
| 13 | 02/29 | 12:00 | 32 | 13 | 46 | 30.45 | SE | 5 | 0.00 |
| 14 | 02/29 | 11:00 | 30 | 11 | 46 | 30.48 | SSE | 5 | 0.00 |
| 15 | 02/29 | 10:00 | 28 | 10 | 48 | 30.50 | S | 6 | 0.00 |
| 16 | 02/29 | 09:00 | 25 | 13 | 60 | 30.52 | SW | 3 | 0.00 |
| 17 | 02/29 | 08:00 | 21 | 15 | 78 | 30.53 | SSW | 4 | 0.00 |
| 18 | 02/29 | 07:00 | 15 | 12 | 88 | 30.50 | S | 1 | 0.00 |
| 19 | 02/29 | 06:00 | 14 | 10 | 86 | 30.49 | S | 0 | 0.00 |
| 20 | 02/29 | 05:00 | 15 | 10 | 82 | 30.48 | S | 1 | 0.00 |
| 21 | 02/29 | 04:00 | 15 | 9 | 78 | 30.46 | S | 2 | 0.00 |
| 22 | 02/29 | 03:00 | 14 | 9 | 81 | 30.45 | S | 3 | 0.00 |
| 23 | 02/29 | 02:00 | 16 | 7 | 69 | 30.43 | N | 1 | 0.00 |
| 24 | 02/29 | 01:00 | 17 | 7 | 67 | 30.43 | NNW | 1 | 0.00 |